createdAt,value
2023-03-06T00:00:21.761Z,83.02
2023-03-06T00:03:09.796Z,83.75
2023-03-06T00:05:37.927Z,84.12
2023-03-06T00:08:06.392Z,84.34
2023-03-06T00:10:34.453Z,84.72
2023-03-06T00:13:07.189Z,84.93
2023-03-06T00:15:35.212Z,85.72
2023-03-06T00:18:04.443Z,86.17
2023-03-06T00:20:33.152Z,85.97
2023-03-06T00:23:01.253Z,86.83
2023-03-06T00:25:29.344Z,87.36
2023-03-06T00:27:57.442Z,88.09
2023-03-06T00:30:25.660Z,88.57
2023-03-06T00:32:53.958Z,89.77
2023-03-06T00:35:22.317Z,90.15
2023-03-06T00:37:50.430Z,90.60
2023-03-06T00:40:19.666Z,90.83
2023-03-06T00:42:48.363Z,90.75
2023-03-06T00:45:16.499Z,90.90
2023-03-06T00:47:44.559Z,90.69
2023-03-06T00:50:12.576Z,91.26
2023-03-06T00:52:42.215Z,91.20
2023-03-06T00:55:10.573Z,90.92
2023-03-06T00:57:38.556Z,90.77
2023-03-06T01:00:07.066Z,91.91
2023-03-06T01:02:35.382Z,92.25
2023-03-06T01:05:03.755Z,92.34
2023-03-06T01:07:34.246Z,92.95
2023-03-06T01:10:02.911Z,92.32
2023-03-06T01:12:30.908Z,92.01
2023-03-06T01:14:58.959Z,91.93
2023-03-06T01:17:27.054Z,92.43
2023-03-06T01:19:54.986Z,91.77
2023-03-06T01:22:23.015Z,91.83
2023-03-06T01:24:51.044Z,91.77
2023-03-06T01:27:18.996Z,91.60
2023-03-06T01:29:47.237Z,91.57
2023-03-06T01:32:15.150Z,91.34
2023-03-06T01:34:43.177Z,91.50
2023-03-06T01:37:11.230Z,91.68
2023-03-06T01:39:39.214Z,91.38
2023-03-06T01:42:07.568Z,91.33
2023-03-06T01:44:35.606Z,91.58
2023-03-06T01:47:03.685Z,91.40
2023-03-06T01:49:34.341Z,91.30
2023-03-06T01:52:04.298Z,91.40
2023-03-06T01:54:40.268Z,91.30
2023-03-06T01:57:19.261Z,91.40
2023-03-06T01:59:51.686Z,91.22
2023-03-06T02:02:20.153Z,91.47
2023-03-06T02:04:48.685Z,91.54
2023-03-06T02:07:19.049Z,91.96
2023-03-06T02:09:47.192Z,92.62
2023-03-06T02:12:19.239Z,93.31
2023-03-06T02:14:47.851Z,93.53
2023-03-06T02:17:18.408Z,94.75
2023-03-06T02:19:49.451Z,95.33
2023-03-06T02:22:21.050Z,95.50
2023-03-06T02:24:58.463Z,95.79
2023-03-06T02:27:27.246Z,95.75
2023-03-06T02:29:56.120Z,95.82
2023-03-06T02:32:24.327Z,95.76
2023-03-06T02:34:54.523Z,95.32
2023-03-06T02:37:24.043Z,95.37
2023-03-06T02:39:54.996Z,95.05
2023-03-06T02:42:25.108Z,94.90
2023-03-06T02:44:55.842Z,94.59
2023-03-06T02:47:23.927Z,95.09
2023-03-06T02:49:52.433Z,95.30
2023-03-06T02:52:20.440Z,95.13
2023-03-06T02:54:48.340Z,95.51
2023-03-06T02:57:16.988Z,95.20
2023-03-06T02:59:46.138Z,95.38
2023-03-06T03:02:14.204Z,95.56
2023-03-06T03:04:42.317Z,95.64
2023-03-06T03:07:10.561Z,95.83
2023-03-06T03:09:39.763Z,95.84
2023-03-06T03:12:08.437Z,95.94
2023-03-06T03:14:36.734Z,96.90
2023-03-06T03:17:04.797Z,97.59
2023-03-06T03:19:32.946Z,99.61
2023-03-06T03:22:01.123Z,100.00
2023-03-06T03:24:29.446Z,100.00
2023-03-06T03:26:57.433Z,100.00
2023-03-06T03:29:25.647Z,100.00
2023-03-06T03:31:54.912Z,100.00
2023-03-06T03:34:25.622Z,100.00
2023-03-06T03:36:55.007Z,100.00
2023-03-06T03:39:23.188Z,100.00
2023-03-06T03:41:51.464Z,100.00
2023-03-06T03:44:20.860Z,99.97
2023-03-06T03:46:49.489Z,100.00
2023-03-06T03:49:20.897Z,100.00
2023-03-06T03:51:49.482Z,100.00
2023-03-06T03:54:18.212Z,100.00
2023-03-06T03:56:48.085Z,100.00
2023-03-06T03:59:21.282Z,100.00
2023-03-06T04:02:15.918Z,100.00
2023-03-06T04:04:52.688Z,100.00
2023-03-06T04:07:22.142Z,100.00
2023-03-06T04:09:50.668Z,100.00
2023-03-06T04:12:19.132Z,100.00
2023-03-06T04:14:47.999Z,100.00
2023-03-06T04:17:16.795Z,100.00
2023-03-06T04:19:45.727Z,100.00
2023-03-06T04:22:13.854Z,100.00
2023-03-06T04:24:42.129Z,100.00
2023-03-06T04:27:10.807Z,100.00
2023-03-06T04:29:39.096Z,100.00
2023-03-06T04:32:07.701Z,100.00
2023-03-06T04:34:35.957Z,100.00
2023-03-06T04:37:04.441Z,100.00
2023-03-06T04:39:32.725Z,100.00
2023-03-06T04:42:00.799Z,100.00
2023-03-06T04:44:29.373Z,100.00
2023-03-06T04:46:57.549Z,100.00
2023-03-06T04:49:25.616Z,100.00
2023-03-06T04:51:53.828Z,100.00
2023-03-06T04:54:21.765Z,100.00
2023-03-06T04:56:50.039Z,100.00
2023-03-06T04:59:18.215Z,100.00
2023-03-06T05:01:46.195Z,100.00
2023-03-06T05:04:14.265Z,100.00
2023-03-06T05:06:42.489Z,100.00
2023-03-06T05:09:10.704Z,100.00
2023-03-06T05:11:38.875Z,100.00
2023-03-06T05:14:06.954Z,100.00
2023-03-06T05:16:35.378Z,100.00
2023-03-06T05:19:03.703Z,100.00
2023-03-06T05:21:31.813Z,100.00
2023-03-06T05:24:00.078Z,100.00
2023-03-06T05:26:28.744Z,100.00
2023-03-06T05:28:57.089Z,100.00
2023-03-06T05:31:25.474Z,100.00
2023-03-06T05:33:53.772Z,100.00
2023-03-06T05:36:21.746Z,100.00
2023-03-06T05:38:50.519Z,100.00
2023-03-06T05:41:18.815Z,100.00
2023-03-06T05:43:47.652Z,100.00
2023-03-06T05:46:15.657Z,100.00
2023-03-06T05:48:45.331Z,100.00
2023-03-06T05:51:14.617Z,100.00
2023-03-06T05:53:42.667Z,100.00
2023-03-06T05:56:11.242Z,100.00
2023-03-06T05:58:39.975Z,100.00
2023-03-06T06:01:10.104Z,100.00
2023-03-06T06:03:38.799Z,100.00
2023-03-06T06:06:07.868Z,98.24
2023-03-06T06:08:36.007Z,92.83
2023-03-06T06:11:08.020Z,84.45
2023-03-06T06:13:36.556Z,82.37
2023-03-06T06:16:12.169Z,75.39
2023-03-06T06:18:41.457Z,73.50
2023-03-06T06:21:10.667Z,73.92
2023-03-06T06:23:39.258Z,70.76
2023-03-06T06:26:08.928Z,67.87
2023-03-06T06:28:37.578Z,65.74
2023-03-06T06:31:09.690Z,63.54
2023-03-06T06:33:38.842Z,61.05
2023-03-06T06:36:14.954Z,59.61
2023-03-06T06:38:43.433Z,57.27
2023-03-06T06:41:36.070Z,56.24
2023-03-06T06:44:00.002Z,54.74
2023-03-06T06:47:10.794Z,54.26
2023-03-06T06:49:16.523Z,53.85
2023-03-06T06:51:45.108Z,51.30
2023-03-06T06:54:13.118Z,50.00
2023-03-06T06:56:41.231Z,51.67
2023-03-06T06:59:16.657Z,50.25
2023-03-06T07:01:45.582Z,48.44
2023-03-06T07:04:14.102Z,48.13
2023-03-06T07:06:42.850Z,47.53
2023-03-06T07:09:12.250Z,49.27
2023-03-06T07:11:41.329Z,48.25
2023-03-06T07:14:09.401Z,49.34
2023-03-06T07:16:37.469Z,49.71
2023-03-06T07:19:06.140Z,51.01
2023-03-06T07:21:34.342Z,48.38
2023-03-06T07:24:02.389Z,45.80
2023-03-06T07:26:32.786Z,46.76
2023-03-06T07:29:03.737Z,46.70
2023-03-06T07:31:32.018Z,46.52
2023-03-06T07:34:00.845Z,48.20
2023-03-06T07:36:29.627Z,48.82
2023-03-06T07:38:57.726Z,49.20
2023-03-06T07:41:25.838Z,50.20
2023-03-06T07:43:53.749Z,51.32
2023-03-06T07:46:21.797Z,50.97
2023-03-06T07:48:49.747Z,52.17
2023-03-06T07:51:19.374Z,52.66
2023-03-06T07:53:48.101Z,52.64
2023-03-06T07:56:16.545Z,52.70
2023-03-06T07:58:45.571Z,52.89
2023-03-06T08:01:15.347Z,54.01
2023-03-06T08:03:43.501Z,54.07
2023-03-06T08:06:12.859Z,53.78
2023-03-06T08:08:42.214Z,53.95
2023-03-06T08:11:11.469Z,54.49
2023-03-06T08:13:39.782Z,54.71
2023-03-06T08:16:08.087Z,55.05
2023-03-06T08:18:36.516Z,55.66
2023-03-06T08:21:06.376Z,55.94
2023-03-06T08:23:34.935Z,55.62
2023-03-06T08:26:04.859Z,55.66
2023-03-06T08:28:33.249Z,56.65
2023-03-06T08:31:08.377Z,56.72
2023-03-06T08:33:36.513Z,56.92
2023-03-06T08:36:04.700Z,57.39
2023-03-06T08:38:32.671Z,57.28
2023-03-06T08:41:00.818Z,57.51
2023-03-06T08:43:29.003Z,58.05
2023-03-06T08:45:58.341Z,58.62
2023-03-06T08:48:26.472Z,58.66
2023-03-06T08:50:54.971Z,58.93
2023-03-06T08:53:33.452Z,59.51
2023-03-06T08:56:21.274Z,60.02
2023-03-06T08:58:50.140Z,60.59
2023-03-06T09:01:26.123Z,60.99
2023-03-06T09:03:56.010Z,61.33
2023-03-06T09:06:26.003Z,61.97
2023-03-06T09:08:54.895Z,62.21
2023-03-06T09:11:24.642Z,62.44
2023-03-06T09:13:53.691Z,62.57
2023-03-06T09:16:22.040Z,62.56
2023-03-06T09:18:53.131Z,62.48
2023-03-06T09:21:21.995Z,62.04
2023-03-06T09:23:50.080Z,62.35
2023-03-06T09:26:18.890Z,62.32
2023-03-06T09:28:47.104Z,62.21
2023-03-06T09:31:17.416Z,61.63
2023-03-06T09:33:46.041Z,60.78
2023-03-06T09:36:16.028Z,60.10
2023-03-06T09:38:45.963Z,59.88
2023-03-06T09:41:43.527Z,59.10
2023-03-06T09:44:16.855Z,58.43
2023-03-06T09:46:47.414Z,57.70
2023-03-06T09:49:15.388Z,57.61
2023-03-06T09:51:49.996Z,57.07
2023-03-06T09:54:22.530Z,57.39
2023-03-06T09:56:50.692Z,57.29
2023-03-06T09:59:23.862Z,56.98
2023-03-06T10:01:58.767Z,56.18
2023-03-06T10:04:37.174Z,55.62
2023-03-06T10:07:25.980Z,55.51
2023-03-06T10:09:57.137Z,56.30
2023-03-06T10:12:28.895Z,54.95
2023-03-06T10:14:59.732Z,55.91
2023-03-06T10:17:31.346Z,54.67
2023-03-06T10:19:59.293Z,54.08
2023-03-06T10:22:30.736Z,54.56
2023-03-06T10:25:08.358Z,55.12
2023-03-06T10:27:42.613Z,56.51
2023-03-06T10:30:30.659Z,56.44
2023-03-06T10:33:09.028Z,57.59
2023-03-06T10:35:47.580Z,57.81
2023-03-06T10:38:18.734Z,58.15
2023-03-06T10:40:51.358Z,58.64
2023-03-06T10:43:19.769Z,58.01
2023-03-06T10:45:49.824Z,57.36
2023-03-06T10:48:28.111Z,57.34
2023-03-06T10:51:19.456Z,56.21
2023-03-06T10:53:50.832Z,56.22
2023-03-06T10:56:35.857Z,54.34
2023-03-06T10:59:08.681Z,52.90
2023-03-06T11:01:37.043Z,52.53
2023-03-06T11:04:26.482Z,51.14
2023-03-06T11:07:14.521Z,50.28
2023-03-06T11:10:02.869Z,49.76
2023-03-06T11:12:32.502Z,48.01
2023-03-06T11:15:06.709Z,47.69
2023-03-06T11:17:36.258Z,46.99
2023-03-06T11:20:15.528Z,45.57
2023-03-06T11:22:49.094Z,43.52
2023-03-06T11:25:19.260Z,43.15
2023-03-06T11:27:52.863Z,43.26
2023-03-06T11:30:24.361Z,43.98
2023-03-06T11:32:57.760Z,42.58
2023-03-06T11:35:36.062Z,42.93
2023-03-06T11:38:14.418Z,42.72
2023-03-06T11:40:54.157Z,42.01
2023-03-06T11:43:25.509Z,41.81
2023-03-06T11:46:02.323Z,40.97
2023-03-06T11:48:42.482Z,40.81
2023-03-06T11:51:33.889Z,40.98
2023-03-06T11:54:02.722Z,40.09
2023-03-06T11:56:48.457Z,40.75
2023-03-06T11:59:27.234Z,41.03
2023-03-06T12:02:14.191Z,41.28
2023-03-06T12:05:01.263Z,40.95
2023-03-06T12:07:33.067Z,41.48
2023-03-06T12:10:09.933Z,41.07
2023-03-06T12:12:47.403Z,41.80
2023-03-06T12:15:15.468Z,42.39
2023-03-06T12:18:02.355Z,42.61
2023-03-06T12:20:33.305Z,43.10
2023-03-06T12:23:21.694Z,42.53
2023-03-06T12:25:54.352Z,42.84
2023-03-06T12:28:25.412Z,43.11
2023-03-06T12:31:12.444Z,43.48
2023-03-06T12:34:03.785Z,43.74
2023-03-06T12:36:31.887Z,43.93
2023-03-06T12:39:17.652Z,44.19
2023-03-06T12:42:11.304Z,44.39
2023-03-06T12:44:42.542Z,42.94
2023-03-06T12:47:11.858Z,43.03
2023-03-06T12:49:42.491Z,43.17
2023-03-06T12:52:21.610Z,42.81
2023-03-06T12:54:53.843Z,43.44
2023-03-06T12:57:24.142Z,43.67
2023-03-06T12:59:52.864Z,44.18
2023-03-06T13:02:39.460Z,44.90
2023-03-06T13:05:27.430Z,45.46
2023-03-06T13:08:14.376Z,44.94
2023-03-06T13:10:43.676Z,45.06
2023-03-06T13:13:30.807Z,44.30
2023-03-06T13:16:11.240Z,43.62
2023-03-06T13:18:42.106Z,43.32
2023-03-06T13:21:30.006Z,43.36
2023-03-06T13:24:04.944Z,43.88
2023-03-06T13:26:32.978Z,43.46
2023-03-06T13:29:01.846Z,43.35
2023-03-06T13:31:32.855Z,43.69
2023-03-06T13:34:02.531Z,43.21
2023-03-06T13:36:31.741Z,43.51
2023-03-06T13:39:01.251Z,43.77
2023-03-06T13:41:32.210Z,43.29
2023-03-06T13:44:01.938Z,43.92
2023-03-06T13:46:37.302Z,44.08
2023-03-06T13:49:08.365Z,43.88
2023-03-06T13:51:41.923Z,44.36
2023-03-06T13:54:09.852Z,44.23
2023-03-06T13:56:56.605Z,44.52
2023-03-06T13:59:24.570Z,43.85
2023-03-06T14:01:58.827Z,43.41
2023-03-06T14:04:35.991Z,43.95
2023-03-06T14:07:07.089Z,44.08
2023-03-06T14:09:37.308Z,44.24
2023-03-06T14:12:07.288Z,44.71
2023-03-06T14:14:40.427Z,44.18
2023-03-06T14:17:15.421Z,44.52
2023-03-06T14:19:43.455Z,44.80
2023-03-06T14:22:19.228Z,45.09
2023-03-06T14:24:56.516Z,45.48
2023-03-06T14:27:42.696Z,45.81
2023-03-06T14:30:15.457Z,46.64
2023-03-06T14:32:44.105Z,46.75
2023-03-06T14:35:20.471Z,47.09
2023-03-06T14:37:53.278Z,47.18
2023-03-06T14:40:24.837Z,47.00
2023-03-06T14:43:09.494Z,47.38
2023-03-06T14:45:37.491Z,47.84
2023-03-06T14:48:06.320Z,48.10
2023-03-06T14:50:35.566Z,48.56
2023-03-06T14:53:06.920Z,48.64
2023-03-06T14:55:35.804Z,48.88
2023-03-06T14:58:03.978Z,49.31
2023-03-06T15:00:35.835Z,49.36
2023-03-06T15:03:06.288Z,49.78
2023-03-06T15:05:34.645Z,50.12
2023-03-06T15:08:05.418Z,50.01
2023-03-06T15:10:34.515Z,50.44
2023-03-06T15:13:20.469Z,50.37
2023-03-06T15:15:55.653Z,50.78
2023-03-06T15:18:32.958Z,51.23
2023-03-06T15:21:07.904Z,51.70
2023-03-06T15:23:37.904Z,51.41
2023-03-06T15:26:24.863Z,51.69
2023-03-06T15:29:11.545Z,51.79
2023-03-06T15:31:41.389Z,51.97
2023-03-06T15:34:09.346Z,52.14
2023-03-06T15:36:40.122Z,52.35
2023-03-06T15:39:27.853Z,52.55
2023-03-06T15:42:16.273Z,52.32
2023-03-06T15:44:47.938Z,52.44
2023-03-06T15:47:16.504Z,52.40
2023-03-06T15:49:44.472Z,52.37
2023-03-06T15:52:15.006Z,52.74
2023-03-06T15:54:43.083Z,52.88
2023-03-06T15:57:18.486Z,52.83
2023-03-06T15:59:46.702Z,52.97
2023-03-06T16:02:16.818Z,53.33
2023-03-06T16:04:45.504Z,53.31
2023-03-06T16:07:14.906Z,53.42
2023-03-06T16:09:43.707Z,53.66
2023-03-06T16:12:19.564Z,53.87
2023-03-06T16:14:48.578Z,54.40
2023-03-06T16:17:16.955Z,54.68
2023-03-06T16:19:45.403Z,54.61
2023-03-06T16:22:13.888Z,55.17
2023-03-06T16:24:43.528Z,55.21
2023-03-06T16:27:16.786Z,55.43
2023-03-06T16:29:44.770Z,55.76
2023-03-06T16:32:12.955Z,56.09
2023-03-06T16:34:41.167Z,56.18
2023-03-06T16:37:11.440Z,56.46
2023-03-06T16:39:39.516Z,56.73
2023-03-06T16:42:07.570Z,57.18
2023-03-06T16:44:35.743Z,57.19
2023-03-06T16:47:04.126Z,57.54
2023-03-06T16:49:32.264Z,58.00
2023-03-06T16:52:00.778Z,58.10
2023-03-06T16:54:28.717Z,58.49
2023-03-06T16:56:56.790Z,59.09
2023-03-06T16:59:25.433Z,59.36
2023-03-06T17:01:53.360Z,59.17
2023-03-06T17:04:21.468Z,59.53
2023-03-06T17:06:49.722Z,59.97
2023-03-06T17:09:17.908Z,60.68
2023-03-06T17:11:47.038Z,60.74
2023-03-06T17:14:15.237Z,60.94
2023-03-06T17:16:43.157Z,61.87
2023-03-06T17:19:14.450Z,61.58
2023-03-06T17:21:43.676Z,61.98
2023-03-06T17:24:11.997Z,62.18
2023-03-06T17:26:40.387Z,62.90
2023-03-06T17:29:09.753Z,63.16
2023-03-06T17:31:38.083Z,63.15
2023-03-06T17:34:06.560Z,63.38
2023-03-06T17:36:34.770Z,63.85
2023-03-06T17:39:03.202Z,64.84
2023-03-06T17:41:32.982Z,64.27
2023-03-06T17:44:01.929Z,64.65
2023-03-06T17:46:32.345Z,64.82
2023-03-06T17:49:00.733Z,65.05
2023-03-06T17:51:28.851Z,65.31
2023-03-06T17:53:57.576Z,65.41
2023-03-06T17:56:26.288Z,66.67
2023-03-06T17:58:54.557Z,66.92
2023-03-06T18:01:27.568Z,66.36
2023-03-06T18:03:55.867Z,66.70
2023-03-06T18:06:25.209Z,67.09
2023-03-06T18:08:54.567Z,67.71
2023-03-06T18:11:23.184Z,67.46
2023-03-06T18:13:51.434Z,67.65
2023-03-06T18:16:21.378Z,67.74
2023-03-06T18:18:53.852Z,67.77
2023-03-06T18:21:22.834Z,68.96
2023-03-06T18:23:51.194Z,69.12
2023-03-06T18:26:21.274Z,71.69
2023-03-06T18:28:54.057Z,73.09
2023-03-06T18:31:27.864Z,74.23
2023-03-06T18:33:57.160Z,73.76
2023-03-06T18:36:26.610Z,72.64
2023-03-06T18:38:55.952Z,72.30
2023-03-06T18:41:24.228Z,72.63
2023-03-06T18:43:53.194Z,73.22
2023-03-06T18:46:21.596Z,74.89
2023-03-06T18:48:49.689Z,74.45
2023-03-06T18:51:19.488Z,74.06
2023-03-06T18:53:47.971Z,74.30
2023-03-06T18:56:18.284Z,74.13
2023-03-06T18:58:46.766Z,74.75
2023-03-06T19:01:17.743Z,74.26
2023-03-06T19:03:46.303Z,74.91
2023-03-06T19:06:17.251Z,74.51
2023-03-06T19:08:45.986Z,76.63
2023-03-06T19:11:15.423Z,77.30
2023-03-06T19:13:44.010Z,77.96
2023-03-06T19:16:19.738Z,78.24
2023-03-06T19:18:47.941Z,78.31
2023-03-06T19:21:17.710Z,77.91
2023-03-06T19:23:46.188Z,77.34
2023-03-06T19:26:15.418Z,77.27
2023-03-06T19:28:43.991Z,76.94
2023-03-06T19:31:13.989Z,77.50
2023-03-06T19:33:42.966Z,77.60
2023-03-06T19:36:13.196Z,76.92
2023-03-06T19:38:42.071Z,76.67
2023-03-06T19:41:13.924Z,77.88
2023-03-06T19:43:42.689Z,78.94
2023-03-06T19:46:12.243Z,78.55
2023-03-06T19:48:41.374Z,78.42
2023-03-06T19:51:10.537Z,78.33
2023-03-06T19:53:40.356Z,79.63
2023-03-06T19:56:13.345Z,80.58
2023-03-06T19:58:41.624Z,79.99
2023-03-06T20:01:11.533Z,79.18
2023-03-06T20:03:39.907Z,78.80
2023-03-06T20:06:12.034Z,79.60
2023-03-06T20:08:40.069Z,81.80
2023-03-06T20:11:14.823Z,81.17
2023-03-06T20:13:47.522Z,82.01
2023-03-06T20:16:16.760Z,81.36
2023-03-06T20:18:45.643Z,82.06
2023-03-06T20:21:14.229Z,81.51
2023-03-06T20:23:42.729Z,83.14
2023-03-06T20:26:12.558Z,86.23
2023-03-06T20:28:41.618Z,86.87
2023-03-06T20:31:11.375Z,85.12
2023-03-06T20:33:39.811Z,83.77
2023-03-06T20:36:15.478Z,83.93
2023-03-06T20:38:44.049Z,85.34
2023-03-06T20:41:19.485Z,86.43
2023-03-06T20:43:47.572Z,87.17
2023-03-06T20:46:16.070Z,86.82
2023-03-06T20:48:44.855Z,86.34
2023-03-06T20:51:20.792Z,87.93
2023-03-06T20:53:50.066Z,87.94
2023-03-06T20:56:20.008Z,87.46
2023-03-06T20:58:48.180Z,87.06
2023-03-06T21:01:42.531Z,86.65
2023-03-06T21:04:13.754Z,86.42
2023-03-06T21:06:45.477Z,86.58
2023-03-06T21:09:15.935Z,86.09
2023-03-06T21:11:44.481Z,85.56
2023-03-06T21:14:14.470Z,85.57
2023-03-06T21:16:43.005Z,85.94
2023-03-06T21:19:11.173Z,85.90
2023-03-06T21:21:39.232Z,86.17
2023-03-06T21:24:07.707Z,86.12
2023-03-06T21:26:36.000Z,86.55
2023-03-06T21:29:04.141Z,87.15
2023-03-06T21:31:33.586Z,88.34
2023-03-06T21:34:04.481Z,88.62
2023-03-06T21:36:33.516Z,87.19
2023-03-06T21:39:01.688Z,86.89
2023-03-06T21:41:32.456Z,87.34
2023-03-06T21:44:02.124Z,87.09
2023-03-06T21:46:30.911Z,86.18
2023-03-06T21:48:58.990Z,86.43
2023-03-06T21:51:27.458Z,88.02
2023-03-06T21:53:55.951Z,90.38
2023-03-06T21:56:25.573Z,91.31
2023-03-06T21:58:54.130Z,90.67
2023-03-06T22:01:24.311Z,90.34
2023-03-06T22:03:52.677Z,90.75
2023-03-06T22:06:22.444Z,90.56
2023-03-06T22:08:50.720Z,90.06
2023-03-06T22:11:19.882Z,89.43
2023-03-06T22:13:50.962Z,90.15
2023-03-06T22:16:21.022Z,91.08
2023-03-06T22:18:50.073Z,90.81
2023-03-06T22:21:19.810Z,90.75
2023-03-06T22:23:52.265Z,90.95
2023-03-06T22:26:20.943Z,90.84
2023-03-06T22:28:49.440Z,90.53
2023-03-06T22:31:19.074Z,91.62
2023-03-06T22:33:50.182Z,92.39
2023-03-06T22:36:18.384Z,90.83
2023-03-06T22:38:47.241Z,89.93
2023-03-06T22:41:17.376Z,89.89
2023-03-06T22:43:45.429Z,89.50
2023-03-06T22:46:15.002Z,89.58
2023-03-06T22:48:43.966Z,90.08
2023-03-06T22:51:13.446Z,89.61
2023-03-06T22:53:42.357Z,89.17
2023-03-06T22:56:11.611Z,88.60
2023-03-06T22:58:40.432Z,89.26
2023-03-06T23:01:09.997Z,89.83
2023-03-06T23:03:38.913Z,90.27
2023-03-06T23:06:11.702Z,89.70
2023-03-06T23:08:40.589Z,89.63
2023-03-06T23:11:10.095Z,89.25
2023-03-06T23:13:57.623Z,88.41
2023-03-06T23:16:44.963Z,88.12
2023-03-06T23:19:32.272Z,87.80
2023-03-06T23:22:19.799Z,88.88
2023-03-06T23:25:07.536Z,88.77
2023-03-06T23:27:36.138Z,88.51
2023-03-06T23:30:09.141Z,87.74
2023-03-06T23:32:37.249Z,87.41
2023-03-06T23:35:05.560Z,87.64
2023-03-06T23:37:33.629Z,88.25
2023-03-06T23:40:01.909Z,88.06
2023-03-06T23:42:29.976Z,88.44
2023-03-06T23:44:58.357Z,88.88
2023-03-06T23:47:26.428Z,88.73
2023-03-06T23:49:54.618Z,89.08
2023-03-06T23:52:23.394Z,89.43
2023-03-06T23:54:51.464Z,89.97
2023-03-06T23:57:19.739Z,91.77
2023-03-06T23:59:48.028Z,92.43
